createdAt,value
2019-04-14T00:01:30.544Z,0.40
2019-04-14T00:04:28.996Z,0.40
2019-04-14T00:06:59.290Z,0.30
2019-04-14T00:09:29.462Z,0.40
2019-04-14T00:12:02.084Z,0.30
2019-04-14T00:14:32.053Z,0.30
2019-04-14T00:17:02.153Z,0.30
2019-04-14T00:19:32.698Z,0.30
2019-04-14T00:22:03.506Z,0.30
2019-04-14T00:24:33.743Z,0.30
2019-04-14T00:27:04.242Z,0.30
2019-04-14T00:29:35.089Z,0.30
2019-04-14T00:32:05.453Z,0.30
2019-04-14T00:34:52.945Z,0.30
2019-04-14T00:37:35.943Z,0.20
2019-04-14T00:40:11.287Z,0.20
2019-04-14T00:42:56.451Z,0.20
2019-04-14T00:45:41.624Z,0.20
2019-04-14T00:48:13.145Z,0.20
2019-04-14T00:50:40.895Z,0.20
2019-04-14T00:53:12.104Z,0.20
2019-04-14T00:55:42.607Z,0.20
2019-04-14T00:58:12.799Z,0.20
2019-04-14T01:00:43.196Z,0.20
2019-04-14T01:03:13.457Z,0.20
2019-04-14T01:05:43.718Z,0.10
2019-04-14T01:08:14.174Z,0.10
2019-04-14T01:10:45.349Z,0.10
2019-04-14T01:13:15.815Z,0.10
2019-04-14T01:15:56.818Z,0.10
2019-04-14T01:21:50.307Z,0.00
2019-04-14T01:24:20.718Z,0.00
2019-04-14T01:26:50.748Z,0.00
2019-04-14T01:29:21.020Z,0.00
2019-04-14T01:31:51.525Z,0.00
2019-04-14T01:34:22.274Z,0.00
2019-04-14T01:36:52.371Z,0.00
2019-04-14T01:39:22.534Z,0.00
2019-04-14T01:41:52.709Z,0.10
2019-04-14T01:44:22.654Z,0.00
2019-04-14T01:46:54.164Z,0.00
2019-04-14T01:49:24.745Z,0.00
2019-04-14T01:52:08.178Z,0.00
2019-04-14T01:54:47.251Z,0.00
2019-04-14T01:57:37.642Z,-0.10
2019-04-14T02:00:31.571Z,-0.10
2019-04-14T02:03:01.944Z,-0.10
2019-04-14T02:05:32.139Z,-0.10
2019-04-14T02:08:02.462Z,-0.10
2019-04-14T02:10:32.669Z,-0.10
2019-04-14T02:13:02.866Z,-0.20
2019-04-14T02:15:33.073Z,-0.10
2019-04-14T02:18:03.566Z,-0.20
2019-04-14T02:20:33.936Z,-0.10
2019-04-14T02:23:04.378Z,-0.10
2019-04-14T02:25:35.926Z,-0.10
2019-04-14T02:28:06.933Z,0.00
2019-04-14T02:30:45.743Z,0.10
2019-04-14T02:33:41.395Z,0.10
2019-04-14T02:36:14.228Z,0.20
2019-04-14T02:38:49.015Z,0.30
2019-04-14T02:41:23.481Z,0.40
2019-04-14T02:43:54.565Z,0.40
2019-04-14T02:46:10.035Z,0.50
2019-04-14T02:48:58.753Z,0.50
2019-04-14T02:51:22.372Z,0.50
2019-04-14T02:53:50.136Z,0.50
2019-04-14T02:56:21.790Z,0.50
2019-04-14T02:58:53.811Z,0.60
2019-04-14T03:01:39.464Z,0.60
2019-04-14T03:04:05.917Z,0.60
2019-04-14T03:06:26.110Z,0.60
2019-04-14T03:09:10.835Z,0.70
2019-04-14T03:11:31.195Z,0.70
2019-04-14T03:17:16.199Z,0.90
2019-04-14T03:19:55.993Z,0.90
2019-04-14T03:25:12.550Z,1.00
2019-04-14T03:27:55.109Z,1.00
2019-04-14T03:33:55.614Z,0.90
2019-04-14T03:38:26.315Z,1.00
2019-04-14T03:40:58.551Z,1.00
2019-04-14T03:43:30.982Z,1.10
2019-04-14T03:46:14.875Z,1.10
2019-04-14T03:51:10.717Z,1.10
2019-04-14T03:53:37.729Z,1.10
2019-04-14T03:56:21.688Z,1.00
2019-04-14T03:58:53.221Z,1.00
2019-04-14T04:01:23.772Z,1.00
2019-04-14T04:03:54.289Z,1.00
2019-04-14T04:06:24.656Z,1.00
2019-04-14T04:08:55.248Z,1.00
2019-04-14T04:11:25.875Z,1.00
2019-04-14T04:13:56.367Z,1.00
2019-04-14T04:16:37.396Z,1.00
2019-04-14T04:19:19.756Z,0.90
2019-04-14T04:22:08.539Z,0.90
2019-04-14T04:24:47.564Z,0.90
2019-04-14T04:27:39.737Z,0.80
2019-04-14T04:30:19.031Z,0.80
2019-04-14T04:33:11.186Z,0.70
2019-04-14T04:35:50.118Z,0.60
2019-04-14T04:38:48.774Z,0.60
2019-04-14T04:41:19.202Z,0.60
2019-04-14T04:43:49.775Z,0.60
2019-04-14T04:46:20.417Z,0.70
2019-04-14T04:49:00.923Z,0.80
2019-04-14T04:51:22.475Z,0.90
2019-04-14T04:53:52.834Z,1.00
2019-04-14T04:56:23.226Z,1.00
2019-04-14T04:58:54.520Z,1.10
2019-04-14T05:01:25.931Z,1.10
2019-04-14T05:03:56.533Z,1.20
2019-04-14T05:07:01.699Z,1.30
2019-04-14T05:09:51.299Z,1.30
2019-04-14T05:12:41.888Z,1.40
2019-04-14T05:15:33.947Z,1.40
2019-04-14T05:18:04.974Z,1.50
2019-04-14T05:20:35.781Z,1.50
2019-04-14T05:23:05.943Z,1.50
2019-04-14T05:25:36.565Z,1.60
2019-04-14T05:28:07.148Z,1.60
2019-04-14T05:30:37.317Z,1.60
2019-04-14T05:33:07.532Z,1.70
2019-04-14T05:35:38.067Z,1.80
2019-04-14T05:38:08.525Z,1.80
2019-04-14T05:40:39.024Z,1.90
2019-04-14T05:43:09.078Z,1.90
2019-04-14T05:45:39.528Z,1.90
2019-04-14T05:48:10.070Z,1.90
2019-04-14T05:50:40.117Z,2.00
2019-04-14T05:53:11.037Z,2.10
2019-04-14T05:55:41.658Z,2.10
2019-04-14T05:58:12.202Z,2.20
2019-04-14T06:00:46.375Z,2.20
2019-04-14T06:03:16.772Z,2.30
2019-04-14T06:05:49.369Z,2.30
2019-04-14T06:08:19.108Z,2.30
2019-04-14T06:10:49.112Z,2.40
2019-04-14T06:13:19.000Z,2.40
2019-04-14T06:15:49.140Z,2.40
2019-04-14T06:18:18.954Z,2.40
2019-04-14T06:20:48.718Z,2.40
2019-04-14T06:23:18.876Z,2.50
2019-04-14T06:25:48.812Z,2.60
2019-04-14T06:28:18.777Z,2.60
2019-04-14T06:31:08.953Z,2.70
2019-04-14T06:33:58.410Z,2.70
2019-04-14T06:36:42.686Z,2.80
2019-04-14T06:39:31.560Z,2.90
2019-04-14T06:42:01.500Z,2.90
2019-04-14T06:44:31.426Z,3.00
2019-04-14T06:47:01.302Z,3.00
2019-04-14T06:49:31.119Z,3.00
2019-04-14T06:52:01.112Z,3.00
2019-04-14T06:54:31.060Z,3.10
2019-04-14T06:57:01.053Z,3.20
2019-04-14T06:59:31.031Z,3.30
2019-04-14T07:02:01.812Z,3.40
2019-04-14T07:04:32.103Z,3.40
2019-04-14T07:07:03.126Z,3.40
2019-04-14T07:09:33.094Z,3.40
2019-04-14T07:12:03.335Z,3.50
2019-04-14T07:14:33.170Z,3.50
2019-04-14T07:17:03.054Z,3.60
2019-04-14T07:19:32.913Z,3.70
2019-04-14T07:22:02.863Z,3.70
2019-04-14T07:24:32.653Z,3.80
2019-04-14T07:27:02.450Z,3.90
2019-04-14T07:29:41.799Z,3.80
2019-04-14T07:32:29.390Z,3.80
2019-04-14T07:38:44.535Z,3.90
2019-04-14T07:41:42.605Z,3.90
2019-04-14T07:44:33.998Z,3.90
2019-04-14T07:47:16.675Z,3.90
2019-04-14T07:50:14.492Z,4.00
2019-04-14T07:52:50.067Z,4.20
2019-04-14T07:55:42.048Z,4.30
2019-04-14T07:58:31.010Z,4.40
2019-04-14T08:01:19.917Z,4.40
2019-04-14T08:04:12.296Z,4.50
2019-04-14T08:06:46.843Z,4.60
2019-04-14T08:09:17.233Z,4.70
2019-04-14T08:11:47.634Z,4.70
2019-04-14T08:14:17.400Z,4.70
2019-04-14T08:16:47.221Z,4.80
2019-04-14T08:22:58.070Z,5.10
2019-04-14T08:25:28.093Z,4.90
2019-04-14T08:27:57.888Z,4.90
2019-04-14T08:30:27.906Z,5.00
2019-04-14T08:32:57.718Z,5.10
2019-04-14T08:35:27.575Z,5.20
2019-04-14T08:37:57.547Z,5.40
2019-04-14T08:40:27.442Z,5.60
2019-04-14T08:43:28.426Z,5.60
2019-04-14T08:46:23.571Z,5.50
2019-04-14T08:49:02.659Z,5.70
2019-04-14T08:51:37.082Z,5.80
2019-04-14T08:54:22.648Z,6.00
2019-04-14T08:57:11.507Z,6.10
2019-04-14T09:00:15.686Z,6.10
2019-04-14T09:03:00.611Z,6.20
2019-04-14T09:09:27.451Z,6.50
2019-04-14T09:12:14.931Z,6.60
2019-04-14T09:14:35.499Z,6.70
2019-04-14T09:17:05.449Z,6.70
2019-04-14T09:19:35.307Z,6.90
2019-04-14T09:22:05.092Z,6.90
2019-04-14T09:24:34.888Z,7.10
2019-04-14T09:27:04.801Z,7.20
2019-04-14T09:29:34.568Z,7.30
2019-04-14T09:32:06.174Z,7.50
2019-04-14T09:34:35.963Z,7.60
2019-04-14T09:37:05.729Z,7.70
2019-04-14T09:39:35.571Z,7.80
2019-04-14T09:42:05.448Z,7.90
2019-04-14T09:44:35.397Z,8.20
2019-04-14T09:47:05.432Z,8.30
2019-04-14T09:53:07.690Z,8.30
2019-04-14T09:55:37.498Z,8.30
2019-04-14T09:58:07.190Z,8.50
2019-04-14T10:00:39.268Z,9.00
2019-04-14T10:03:09.802Z,9.50
2019-04-14T10:05:39.576Z,9.90
2019-04-14T10:08:09.316Z,10.40
2019-04-14T10:10:39.140Z,10.50
2019-04-14T10:13:09.138Z,10.90
2019-04-14T10:15:39.014Z,11.00
2019-04-14T10:18:08.962Z,11.00
2019-04-14T10:20:38.828Z,11.10
2019-04-14T10:23:08.828Z,11.10
2019-04-14T10:25:38.664Z,10.70
2019-04-14T10:28:08.500Z,10.30
2019-04-14T10:30:38.440Z,10.50
2019-04-14T10:33:08.276Z,10.50
2019-04-14T10:35:38.064Z,10.70
2019-04-14T10:38:07.971Z,11.10
2019-04-14T10:40:37.804Z,10.60
2019-04-14T10:43:07.643Z,10.60
2019-04-14T10:45:37.576Z,10.50
2019-04-14T10:48:07.442Z,10.40
2019-04-14T10:50:37.348Z,10.20
2019-04-14T10:53:07.146Z,9.90
2019-04-14T10:55:37.023Z,9.80
2019-04-14T10:58:07.000Z,10.10
2019-04-14T11:00:37.008Z,10.30
2019-04-14T11:03:06.871Z,9.90
2019-04-14T11:05:49.919Z,9.90
2019-04-14T11:08:20.526Z,10.20
2019-04-14T11:10:50.504Z,10.10
2019-04-14T11:13:20.209Z,10.30
2019-04-14T11:15:50.223Z,10.30
2019-04-14T11:18:20.229Z,10.70
2019-04-14T11:20:50.014Z,11.50
2019-04-14T11:23:19.892Z,11.90
2019-04-14T11:25:49.799Z,12.10
2019-04-14T11:28:19.788Z,12.70
2019-04-14T11:30:50.269Z,12.70
2019-04-14T11:33:39.547Z,12.10
2019-04-14T11:36:37.382Z,11.30
2019-04-14T11:39:13.122Z,11.00
2019-04-14T11:41:43.110Z,11.60
2019-04-14T11:44:12.841Z,12.00
2019-04-14T11:46:42.637Z,12.10
2019-04-14T11:49:12.491Z,12.30
2019-04-14T11:51:54.436Z,12.10
2019-04-14T11:54:14.107Z,11.90
2019-04-14T11:56:43.999Z,12.20
2019-04-14T11:59:13.829Z,12.40
2019-04-14T12:01:53.062Z,12.80
2019-04-14T12:04:35.499Z,13.30
2019-04-14T12:07:27.079Z,13.20
2019-04-14T12:10:00.271Z,13.60
2019-04-14T12:12:30.121Z,13.50
2019-04-14T12:14:59.851Z,13.20
2019-04-14T12:17:29.628Z,13.80
2019-04-14T12:19:59.562Z,13.80
2019-04-14T12:22:29.313Z,14.10
2019-04-14T12:24:59.114Z,14.00
2019-04-14T12:27:29.087Z,14.00
2019-04-14T12:29:58.966Z,13.70
2019-04-14T12:32:30.301Z,13.30
2019-04-14T12:35:00.125Z,13.50
2019-04-14T12:37:30.031Z,13.70
2019-04-14T12:39:59.829Z,14.00
2019-04-14T12:42:49.481Z,13.80
2019-04-14T12:45:50.299Z,13.00
2019-04-14T12:48:37.981Z,12.40
2019-04-14T12:51:16.511Z,12.30
2019-04-14T12:53:46.339Z,13.00
2019-04-14T12:56:18.774Z,13.60
2019-04-14T12:59:13.589Z,14.00
2019-04-14T13:01:52.224Z,13.90
2019-04-14T13:04:22.217Z,13.30
2019-04-14T13:06:52.250Z,13.00
2019-04-14T13:09:22.142Z,12.60
2019-04-14T13:11:52.086Z,12.50
2019-04-14T13:14:21.857Z,12.50
2019-04-14T13:16:51.714Z,12.40
2019-04-14T13:19:21.641Z,12.60
2019-04-14T13:21:51.679Z,13.20
2019-04-14T13:24:21.737Z,13.60
2019-04-14T13:26:51.595Z,13.50
2019-04-14T13:29:21.380Z,14.10
2019-04-14T13:31:51.365Z,14.30
2019-04-14T13:38:03.093Z,13.00
2019-04-14T13:40:32.997Z,12.60
2019-04-14T13:43:02.857Z,12.30
2019-04-14T13:45:32.655Z,11.90
2019-04-14T13:48:02.465Z,11.90
2019-04-14T13:50:32.361Z,12.10
2019-04-14T13:53:02.157Z,12.60
2019-04-14T13:55:31.922Z,13.10
2019-04-14T13:58:01.735Z,12.90
2019-04-14T14:00:31.564Z,13.10
2019-04-14T14:03:01.303Z,13.10
2019-04-14T14:05:31.164Z,13.00
2019-04-14T14:08:01.076Z,13.10
2019-04-14T14:10:32.255Z,13.40
2019-04-14T14:13:14.936Z,13.60
2019-04-14T14:16:02.995Z,13.80
2019-04-14T14:18:51.832Z,13.80
2019-04-14T14:21:39.604Z,14.20
2019-04-14T14:24:26.984Z,14.30
2019-04-14T14:26:57.720Z,14.20
2019-04-14T14:29:27.602Z,13.90
2019-04-14T14:31:58.374Z,13.90
2019-04-14T14:34:28.128Z,14.10
2019-04-14T14:36:57.994Z,14.10
2019-04-14T14:39:27.884Z,13.70
2019-04-14T14:41:57.599Z,13.10
2019-04-14T14:44:34.250Z,13.40
2019-04-14T14:47:13.138Z,13.20
2019-04-14T14:50:04.762Z,12.80
2019-04-14T14:52:35.540Z,12.80
2019-04-14T14:55:06.784Z,13.20
2019-04-14T14:57:36.628Z,13.90
2019-04-14T15:00:20.394Z,13.90
2019-04-14T15:02:50.230Z,13.80
2019-04-14T15:05:20.184Z,13.10
2019-04-14T15:07:50.078Z,13.10
2019-04-14T15:10:37.708Z,13.40
2019-04-14T15:13:07.505Z,14.00
2019-04-14T15:15:37.337Z,14.10
2019-04-14T15:18:07.270Z,14.50
2019-04-14T15:20:37.173Z,14.60
2019-04-14T15:23:07.074Z,14.20
2019-04-14T15:25:37.067Z,14.30
2019-04-14T15:28:07.032Z,14.00
2019-04-14T15:30:37.272Z,13.50
2019-04-14T15:33:07.249Z,12.90
2019-04-14T15:35:37.624Z,12.40
2019-04-14T15:38:07.548Z,12.30
2019-04-14T15:40:37.374Z,12.30
2019-04-14T15:43:07.312Z,12.80
2019-04-14T15:45:37.345Z,13.60
2019-04-14T15:48:07.216Z,14.10
2019-04-14T15:54:09.943Z,13.50
2019-04-14T15:56:56.160Z,12.90
2019-04-14T15:59:48.623Z,12.50
2019-04-14T16:02:32.933Z,12.10
2019-04-14T16:05:24.585Z,11.70
2019-04-14T16:08:02.369Z,11.60
2019-04-14T16:10:54.423Z,11.60
2019-04-14T16:13:40.012Z,11.90
2019-04-14T16:16:31.716Z,12.10
2019-04-14T16:19:23.407Z,12.40
2019-04-14T16:21:53.460Z,12.60
2019-04-14T16:24:23.342Z,12.50
2019-04-14T16:27:07.206Z,12.20
2019-04-14T16:29:45.947Z,12.00
2019-04-14T16:32:45.223Z,11.90
2019-04-14T16:35:19.999Z,11.80
2019-04-14T16:37:50.019Z,11.60
2019-04-14T16:40:19.893Z,11.60
2019-04-14T16:42:49.792Z,11.50
2019-04-14T16:45:19.713Z,11.40
2019-04-14T16:47:49.625Z,11.30
2019-04-14T16:50:19.567Z,11.10
2019-04-14T16:52:55.099Z,11.20
2019-04-14T16:55:40.849Z,11.30
2019-04-14T16:58:32.416Z,11.20
2019-04-14T17:01:06.328Z,11.20
2019-04-14T17:03:36.481Z,11.10
2019-04-14T17:06:06.380Z,11.20
2019-04-14T17:08:36.192Z,11.10
2019-04-14T17:11:06.745Z,11.10
2019-04-14T17:13:40.687Z,11.30
2019-04-14T17:16:41.616Z,11.20
2019-04-14T17:19:26.644Z,11.00
2019-04-14T17:22:11.682Z,11.00
2019-04-14T17:25:06.435Z,11.10
2019-04-14T17:28:04.578Z,11.10
2019-04-14T17:30:39.825Z,10.80
2019-04-14T17:33:34.682Z,10.70
2019-04-14T17:40:11.872Z,10.50
2019-04-14T17:42:50.643Z,10.40
2019-04-14T17:45:38.384Z,10.20
2019-04-14T17:48:26.142Z,10.00
2019-04-14T17:51:13.737Z,9.90
2019-04-14T17:53:51.314Z,9.90
2019-04-14T17:56:43.226Z,9.80
2019-04-14T17:59:26.894Z,9.80
2019-04-14T18:02:01.858Z,9.70
2019-04-14T18:04:48.044Z,9.70
2019-04-14T18:07:22.757Z,9.70
2019-04-14T18:10:15.548Z,9.70
2019-04-14T18:12:59.151Z,9.70
2019-04-14T18:15:46.432Z,9.60
2019-04-14T18:18:31.494Z,9.60
2019-04-14T18:21:05.399Z,9.50
2019-04-14T18:23:35.314Z,9.30
2019-04-14T18:26:05.207Z,9.20
2019-04-14T18:28:49.455Z,9.10
2019-04-14T18:31:24.810Z,9.00
2019-04-14T18:34:19.893Z,8.90
2019-04-14T18:40:43.840Z,8.90
2019-04-14T18:43:51.925Z,9.00
2019-04-14T18:46:35.506Z,8.90
2019-04-14T18:49:30.334Z,8.90
2019-04-14T18:52:21.257Z,8.80
2019-04-14T18:55:00.799Z,8.70
2019-04-14T18:58:01.597Z,8.70
2019-04-14T19:00:47.545Z,8.70
2019-04-14T19:03:17.866Z,8.70
2019-04-14T19:05:48.184Z,8.70
2019-04-14T19:08:18.331Z,8.70
2019-04-14T19:11:01.506Z,8.70
2019-04-14T19:13:32.381Z,8.70
2019-04-14T19:16:12.070Z,8.70
2019-04-14T19:18:45.546Z,8.70
2019-04-14T19:28:45.421Z,8.70
2019-04-14T19:31:15.265Z,8.60
2019-04-14T19:33:44.923Z,8.50
2019-04-14T19:36:14.607Z,8.40
2019-04-14T19:38:44.317Z,8.30
2019-04-14T19:41:14.309Z,8.30
2019-04-14T19:43:44.166Z,8.20
2019-04-14T19:46:14.054Z,8.20
2019-04-14T19:48:43.778Z,8.20
2019-04-14T19:54:46.002Z,8.20
2019-04-14T19:57:15.838Z,8.30
2019-04-14T19:59:45.682Z,8.20
2019-04-14T20:02:15.615Z,8.20
2019-04-14T20:04:45.498Z,8.20
2019-04-14T20:07:15.303Z,8.30
2019-04-14T20:09:45.185Z,8.30
2019-04-14T20:12:15.572Z,8.30
2019-04-14T20:14:45.397Z,8.30
2019-04-14T20:17:32.042Z,8.20
2019-04-14T20:20:35.783Z,8.20
2019-04-14T20:23:36.980Z,8.20
2019-04-14T20:26:28.470Z,8.20
2019-04-14T20:29:06.967Z,8.20
2019-04-14T20:32:01.643Z,8.20
2019-04-14T20:34:31.443Z,8.20
2019-04-14T20:37:01.133Z,8.20
2019-04-14T20:39:31.513Z,8.20
2019-04-14T20:42:01.886Z,8.20
2019-04-14T20:44:31.667Z,8.10
2019-04-14T20:47:01.493Z,8.10
2019-04-14T20:49:31.407Z,8.00
2019-04-14T20:55:50.837Z,8.00
2019-04-14T20:58:20.557Z,7.90
2019-04-14T21:00:50.316Z,7.90
2019-04-14T21:03:37.818Z,7.90
2019-04-14T21:06:29.451Z,7.90
2019-04-14T21:09:11.688Z,7.90
2019-04-14T21:11:49.633Z,7.90
2019-04-14T21:14:35.679Z,7.80
2019-04-14T21:17:14.041Z,7.80
2019-04-14T21:19:48.917Z,7.80
2019-04-14T21:22:43.853Z,7.80
2019-04-14T21:25:18.859Z,7.80
2019-04-14T21:28:01.355Z,7.80
2019-04-14T21:30:42.312Z,7.70
2019-04-14T21:33:28.320Z,7.70
2019-04-14T21:36:10.902Z,7.70
2019-04-14T21:38:47.910Z,7.70
2019-04-14T21:41:21.357Z,7.70
2019-04-14T21:43:52.084Z,7.70
2019-04-14T21:46:25.011Z,7.60
2019-04-14T21:48:54.973Z,7.60
2019-04-14T21:55:01.805Z,7.60
2019-04-14T21:57:45.792Z,7.50
2019-04-14T22:00:34.470Z,7.50
2019-04-14T22:03:32.758Z,7.50
2019-04-14T22:06:24.314Z,7.50
2019-04-14T22:08:54.997Z,7.50
2019-04-14T22:11:26.556Z,7.40
2019-04-14T22:13:56.840Z,7.30
2019-04-14T22:16:27.422Z,7.30
2019-04-14T22:18:57.332Z,7.20
2019-04-14T22:25:09.146Z,7.20
2019-04-14T22:27:39.256Z,7.20
2019-04-14T22:30:09.663Z,7.20
2019-04-14T22:32:39.606Z,7.10
2019-04-14T22:35:09.553Z,7.10
2019-04-14T22:37:39.538Z,7.10
2019-04-14T22:40:09.759Z,7.10
2019-04-14T22:42:39.640Z,7.10
2019-04-14T22:45:09.522Z,7.00
2019-04-14T22:47:39.373Z,7.10
2019-04-14T22:50:09.728Z,7.00
2019-04-14T22:52:39.552Z,7.00
2019-04-14T22:55:09.884Z,6.90
2019-04-14T22:57:39.761Z,6.90
2019-04-14T23:00:14.003Z,6.90
2019-04-14T23:02:54.813Z,6.90
2019-04-14T23:12:19.568Z,7.00
2019-04-14T23:15:11.298Z,7.00
2019-04-14T23:17:51.153Z,6.90
2019-04-14T23:20:31.800Z,7.00
2019-04-14T23:23:12.822Z,7.00
2019-04-14T23:25:42.730Z,7.00
2019-04-14T23:28:12.640Z,7.00
2019-04-14T23:30:42.519Z,7.00
2019-04-14T23:33:12.432Z,6.90
2019-04-14T23:35:42.321Z,6.90
2019-04-14T23:38:12.309Z,6.90
2019-04-14T23:40:42.236Z,6.90
2019-04-14T23:43:12.078Z,6.90
2019-04-14T23:45:41.998Z,6.90
2019-04-14T23:48:11.954Z,6.90
2019-04-14T23:50:41.872Z,6.90
2019-04-14T23:53:11.914Z,6.80
2019-04-14T23:55:41.858Z,6.80
2019-04-14T23:58:11.910Z,6.80
